createdAt,value
2022-08-31T00:01:56.582Z,6.38
2022-08-31T00:28:29.407Z,5.97
2022-08-31T00:31:33.775Z,8.55
2022-08-31T00:38:54.050Z,5.65
2022-08-31T00:49:42.743Z,5.18
2022-08-31T00:56:13.107Z,7.72
2022-08-31T01:02:57.065Z,4.72
2022-08-31T01:06:14.167Z,5.93
2022-08-31T01:27:36.582Z,9.73
2022-08-31T01:38:07.505Z,4.43
2022-08-31T01:59:51.153Z,6.00
2022-08-31T02:23:33.040Z,6.35
2022-08-31T02:27:06.004Z,7.47
2022-08-31T02:37:11.429Z,6.90
2022-08-31T03:05:53.852Z,11.80
2022-08-31T03:09:17.064Z,10.15
2022-08-31T04:04:56.845Z,10.15
2022-08-31T04:08:38.070Z,7.38
2022-08-31T04:30:49.246Z,6.03
2022-08-31T04:55:08.963Z,10.75
2022-08-31T05:05:41.954Z,8.43
2022-08-31T05:12:35.587Z,12.95
2022-08-31T05:19:41.405Z,11.63
2022-08-31T05:29:28.739Z,9.48
2022-08-31T05:44:08.627Z,8.77
2022-08-31T05:53:43.873Z,7.68
2022-08-31T05:56:19.117Z,11.05
2022-08-31T05:58:49.555Z,11.20
2022-08-31T06:01:24.130Z,8.55
2022-08-31T06:04:07.875Z,8.43
2022-08-31T06:06:35.557Z,11.25
2022-08-31T06:09:03.590Z,12.10
2022-08-31T06:11:32.324Z,7.57
2022-08-31T06:14:24.987Z,7.70
2022-08-31T06:17:00.292Z,7.32
2022-08-31T06:19:27.691Z,11.07
2022-08-31T06:21:55.786Z,15.18
2022-08-31T06:24:25.709Z,10.65
2022-08-31T06:26:59.227Z,8.68
2022-08-31T06:29:35.094Z,10.15
2022-08-31T06:32:10.287Z,7.13
2022-08-31T06:34:48.866Z,8.40
2022-08-31T06:37:36.250Z,15.30
2022-08-31T06:40:16.536Z,9.07
2022-08-31T06:42:44.291Z,8.25
2022-08-31T06:45:30.285Z,7.65
2022-08-31T06:48:20.363Z,8.30
2022-08-31T06:50:56.932Z,7.93
2022-08-31T06:53:24.370Z,8.50
2022-08-31T06:56:21.339Z,9.48
2022-08-31T06:59:08.225Z,9.45
2022-08-31T07:01:50.978Z,8.45
2022-08-31T07:04:48.480Z,9.88
2022-08-31T07:07:16.411Z,7.85
2022-08-31T07:09:44.713Z,5.93
2022-08-31T07:12:12.594Z,8.70
2022-08-31T07:14:39.948Z,10.07
2022-08-31T07:17:08.532Z,8.95
2022-08-31T07:19:36.417Z,10.93
2022-08-31T07:22:09.414Z,13.13
2022-08-31T07:24:42.525Z,7.90
2022-08-31T07:27:14.765Z,7.28
2022-08-31T07:29:55.293Z,8.02
2022-08-31T07:32:23.829Z,9.73
2022-08-31T07:34:58.429Z,9.07
2022-08-31T07:37:58.293Z,8.65
2022-08-31T07:40:51.736Z,7.38
2022-08-31T07:43:22.734Z,8.25
2022-08-31T07:45:53.390Z,8.57
2022-08-31T07:48:24.337Z,6.55
2022-08-31T07:51:03.550Z,8.32
2022-08-31T07:53:56.073Z,9.48
2022-08-31T07:56:34.706Z,10.48
2022-08-31T07:59:15.249Z,7.65
2022-08-31T08:01:46.050Z,10.95
2022-08-31T08:04:25.538Z,9.25
2022-08-31T08:06:56.325Z,10.98
2022-08-31T08:09:55.301Z,9.93
2022-08-31T08:12:43.912Z,6.13
2022-08-31T08:15:35.645Z,8.82
2022-08-31T08:18:22.148Z,11.00
2022-08-31T08:23:28.157Z,5.55
2022-08-31T08:26:21.989Z,8.38
2022-08-31T08:29:20.006Z,7.68
2022-08-31T08:31:53.939Z,7.03
2022-08-31T08:34:29.642Z,5.78
2022-08-31T08:37:01.013Z,8.63
2022-08-31T08:39:28.291Z,7.00
2022-08-31T08:42:15.462Z,6.07
2022-08-31T08:44:44.605Z,10.00
2022-08-31T08:47:25.647Z,6.15
2022-08-31T08:50:05.563Z,6.32
2022-08-31T08:52:45.282Z,6.50
2022-08-31T08:55:17.067Z,11.25
2022-08-31T08:57:47.094Z,7.38
2022-08-31T09:00:17.879Z,6.55
2022-08-31T09:03:02.218Z,4.75
2022-08-31T09:06:14.203Z,5.03
2022-08-31T09:08:53.459Z,9.57
2022-08-31T09:12:00.054Z,10.90
2022-08-31T09:15:08.862Z,6.90
2022-08-31T09:17:43.330Z,6.35
2022-08-31T09:20:13.379Z,8.63
2022-08-31T09:22:52.806Z,11.82
2022-08-31T09:25:32.841Z,6.00
2022-08-31T09:28:48.552Z,5.40
2022-08-31T09:31:37.487Z,5.03
2022-08-31T09:34:09.456Z,7.05
2022-08-31T09:36:41.213Z,6.95
2022-08-31T09:39:37.467Z,7.57
2022-08-31T09:42:20.212Z,8.73
2022-08-31T09:44:50.426Z,8.23
2022-08-31T09:47:49.001Z,6.00
2022-08-31T09:50:28.384Z,7.88
2022-08-31T09:53:30.946Z,5.47
2022-08-31T09:56:05.802Z,4.40
2022-08-31T09:58:35.059Z,8.80
2022-08-31T10:01:13.422Z,6.63
2022-08-31T10:03:45.488Z,6.88
2022-08-31T10:06:26.426Z,5.07
2022-08-31T10:08:59.287Z,6.38
2022-08-31T10:11:32.627Z,4.97
2022-08-31T10:14:07.766Z,5.00
2022-08-31T10:16:48.180Z,5.43
2022-08-31T10:19:18.846Z,8.85
2022-08-31T10:21:57.103Z,5.97
2022-08-31T10:24:43.852Z,5.00
2022-08-31T10:27:23.651Z,6.82
2022-08-31T10:30:06.959Z,4.30
2022-08-31T10:32:56.715Z,4.70
2022-08-31T10:35:41.308Z,6.95
2022-08-31T10:38:49.643Z,4.07
2022-08-31T10:41:16.731Z,7.15
2022-08-31T10:44:05.909Z,4.40
2022-08-31T10:46:35.754Z,4.25
2022-08-31T10:49:04.753Z,5.72
2022-08-31T10:51:51.079Z,3.45
2022-08-31T10:54:28.830Z,3.05
2022-08-31T10:57:04.466Z,7.53
2022-08-31T10:59:58.114Z,5.53
2022-08-31T11:02:48.476Z,3.83
2022-08-31T11:05:39.089Z,5.00
2022-08-31T11:08:28.058Z,5.32
2022-08-31T11:10:57.452Z,10.45
2022-08-31T11:13:27.295Z,6.25
2022-08-31T11:16:40.036Z,6.97
2022-08-31T11:22:00.169Z,7.53
2022-08-31T11:24:34.877Z,7.90
2022-08-31T11:27:19.251Z,5.05
2022-08-31T11:29:59.255Z,6.30
2022-08-31T11:32:46.049Z,6.35
2022-08-31T11:35:15.693Z,4.35
2022-08-31T11:37:56.133Z,5.50
2022-08-31T11:40:53.388Z,4.47
2022-08-31T11:43:32.747Z,2.65
2022-08-31T11:46:28.741Z,5.53
2022-08-31T11:48:56.022Z,3.92
2022-08-31T11:51:41.497Z,4.93
2022-08-31T11:54:45.442Z,3.65
2022-08-31T11:57:17.618Z,7.60
2022-08-31T11:59:49.095Z,5.40
2022-08-31T12:02:23.211Z,5.03
2022-08-31T12:04:57.590Z,4.95
2022-08-31T12:07:36.038Z,3.17
2022-08-31T12:10:34.344Z,3.85
2022-08-31T12:13:07.541Z,2.53
2022-08-31T12:16:05.722Z,5.47
2022-08-31T12:18:41.582Z,2.67
2022-08-31T12:22:05.223Z,3.67
2022-08-31T12:25:05.320Z,3.58
2022-08-31T12:27:45.894Z,7.30
2022-08-31T12:30:22.869Z,2.88
2022-08-31T12:33:16.947Z,5.93
2022-08-31T12:35:46.439Z,5.38
2022-08-31T12:38:26.447Z,3.13
2022-08-31T12:40:56.078Z,6.65
2022-08-31T12:43:29.072Z,5.13
2022-08-31T12:46:02.372Z,8.27
2022-08-31T12:48:50.103Z,4.10
2022-08-31T12:51:41.845Z,5.63
2022-08-31T12:54:38.324Z,4.07
2022-08-31T12:57:33.233Z,4.30
2022-08-31T13:00:28.341Z,4.43
2022-08-31T13:03:08.509Z,5.82
2022-08-31T13:05:38.416Z,4.43
2022-08-31T13:08:22.258Z,4.13
2022-08-31T13:10:53.663Z,3.03
2022-08-31T13:13:27.072Z,4.03
2022-08-31T13:16:04.797Z,5.68
2022-08-31T13:18:32.371Z,3.97
2022-08-31T13:21:06.076Z,4.07
2022-08-31T13:23:39.345Z,2.42
2022-08-31T13:34:08.161Z,3.58
2022-08-31T13:36:53.604Z,4.47
2022-08-31T13:39:36.530Z,3.50
2022-08-31T13:42:42.925Z,5.20
2022-08-31T13:45:58.603Z,7.43
2022-08-31T13:48:35.605Z,2.88
2022-08-31T13:51:13.232Z,4.88
2022-08-31T13:58:30.631Z,3.90
2022-08-31T14:01:20.946Z,2.45
2022-08-31T14:04:49.597Z,2.85
2022-08-31T14:07:30.646Z,4.25
2022-08-31T14:10:20.258Z,2.03
2022-08-31T14:12:59.357Z,3.33
2022-08-31T14:15:37.947Z,4.72
2022-08-31T14:18:28.686Z,3.80
2022-08-31T14:21:21.034Z,4.97
2022-08-31T14:24:02.099Z,2.80
2022-08-31T14:26:44.338Z,2.03
2022-08-31T14:29:14.412Z,3.10
2022-08-31T14:31:52.400Z,3.83
2022-08-31T14:34:32.428Z,3.45
2022-08-31T14:37:20.068Z,3.30
2022-08-31T14:40:05.636Z,4.90
2022-08-31T14:42:38.017Z,1.70
2022-08-31T14:45:09.365Z,6.18
2022-08-31T14:47:43.962Z,3.28
2022-08-31T14:50:18.332Z,4.53
2022-08-31T14:52:58.495Z,3.83
2022-08-31T14:55:27.537Z,2.63
2022-08-31T14:58:01.935Z,3.58
2022-08-31T15:00:31.909Z,7.05
2022-08-31T15:03:01.544Z,2.72
2022-08-31T15:05:28.848Z,4.80
2022-08-31T15:07:56.931Z,4.13
2022-08-31T15:10:28.190Z,3.20
2022-08-31T15:16:04.167Z,5.07
2022-08-31T15:18:34.397Z,1.98
2022-08-31T15:21:05.829Z,4.82
2022-08-31T15:23:34.101Z,3.13
2022-08-31T15:26:08.337Z,3.33
2022-08-31T15:28:42.205Z,3.38
2022-08-31T15:31:23.786Z,3.30
2022-08-31T15:33:52.574Z,2.95
2022-08-31T15:36:23.987Z,3.90
2022-08-31T15:38:57.147Z,6.28
2022-08-31T15:41:29.223Z,5.33
2022-08-31T15:43:57.004Z,3.85
2022-08-31T15:46:42.934Z,3.05
2022-08-31T15:49:11.136Z,5.40
2022-08-31T15:51:50.368Z,2.58
2022-08-31T15:54:22.735Z,2.72
2022-08-31T15:56:51.408Z,2.20
2022-08-31T15:59:24.426Z,3.55
2022-08-31T16:01:53.167Z,4.40
2022-08-31T16:04:23.585Z,6.80
2022-08-31T16:06:53.002Z,3.38
2022-08-31T16:09:46.208Z,5.38
2022-08-31T16:12:17.419Z,7.32
2022-08-31T16:14:45.221Z,6.35
2022-08-31T16:17:19.357Z,2.88
2022-08-31T16:22:16.189Z,3.83
2022-08-31T16:24:44.366Z,4.97
2022-08-31T16:27:16.147Z,4.70
2022-08-31T16:29:44.761Z,6.40
2022-08-31T16:32:12.038Z,4.05
2022-08-31T16:34:40.216Z,2.95
2022-08-31T16:37:08.356Z,4.95
2022-08-31T16:39:37.767Z,4.32
2022-08-31T16:42:07.268Z,3.45
2022-08-31T16:44:36.456Z,4.03
2022-08-31T16:47:06.988Z,4.18
2022-08-31T16:49:37.258Z,6.28
2022-08-31T16:52:07.386Z,8.00
2022-08-31T16:54:35.261Z,4.45
2022-08-31T16:57:02.459Z,3.05
2022-08-31T16:59:30.333Z,6.13
2022-08-31T17:01:57.878Z,3.50
2022-08-31T17:07:15.507Z,4.25
2022-08-31T17:09:43.583Z,4.05
2022-08-31T17:12:15.395Z,6.00
2022-08-31T17:14:51.467Z,3.72
2022-08-31T17:17:22.165Z,4.43
2022-08-31T17:19:52.316Z,4.70
2022-08-31T17:22:26.889Z,2.70
2022-08-31T17:24:58.768Z,5.93
2022-08-31T17:27:27.609Z,4.93
2022-08-31T17:29:56.279Z,4.20
2022-08-31T17:32:27.568Z,5.68
2022-08-31T17:34:55.504Z,2.42
2022-08-31T17:37:30.451Z,6.18
2022-08-31T17:39:59.198Z,5.18
2022-08-31T17:42:27.307Z,5.53
2022-08-31T17:44:55.853Z,8.10
2022-08-31T17:47:24.901Z,12.35
2022-08-31T17:49:52.895Z,5.35
2022-08-31T17:52:21.898Z,7.40
2022-08-31T17:54:51.287Z,12.40
2022-08-31T17:57:25.339Z,7.03
2022-08-31T18:02:33.264Z,6.50
2022-08-31T18:05:09.500Z,4.57
2022-08-31T19:01:39.999Z,4.97
2022-08-31T19:19:30.648Z,6.03
2022-08-31T19:48:52.672Z,5.00
2022-08-31T19:52:48.145Z,5.32
2022-08-31T20:07:55.343Z,5.30
2022-08-31T20:34:36.885Z,6.68
2022-08-31T20:41:09.935Z,12.10
2022-08-31T21:23:35.853Z,13.05
2022-08-31T21:43:50.450Z,11.40
2022-08-31T22:10:24.740Z,9.90
2022-08-31T22:14:08.966Z,7.03
2022-08-31T22:24:27.044Z,9.55
2022-08-31T22:27:58.582Z,10.45
2022-08-31T23:37:45.589Z,6.97
2022-08-31T23:51:05.574Z,10.10
